FW7380 Weather Reports


Display with metric or nautical units.
time (UTC)temp
F
wind
direction
speed
MPH
gust
MPH
rain 1hr
in
rain 24hr
in
rain mn
in
humidity
%
barometer
mb
20240416094530 40 0 0.0 0.0 0.00 0.00 0.00 89 1016.0
20240416093027 40 0 0.0 2.0 0.00 0.00 0.00 89 1015.8
20240416091530 40 0 0.0 0.0 0.00 0.00 0.00 88 1015.6
20240416090046 41 0 0.0 1.0 0.00 0.00 0.00 87 1015.5
20240416084528 41 0 0.0 0.0 0.00 0.00 0.00 86 1015.3
20240416083028 41 0 0.0 0.0 0.00 0.00 0.00 86 1015.2
20240416081533 42 0 0.0 1.0 0.00 0.00 0.00 87 1015.1
20240416080035 42 0 0.0 0.0 0.00 0.00 0.00 87 1015.0
20240416074527 42 174 0.0 2.0 0.00 0.00 0.00 87 1014.9
20240416073029 42 0 0.0 2.0 0.00 0.00 0.00 87 1014.9
20240416071533 42 0 0.0 0.0 0.00 0.00 0.00 88 1014.9
20240416070028 42 0 0.0 0.0 0.00 0.00 0.00 88 1014.9
20240416064545 42 0 0.0 0.0 0.00 0.00 0.00 88 1014.9
20240416063027 43 0 0.0 1.0 0.00 0.00 0.00 88 1014.9
20240416061526 43 0 0.0 0.0 0.00 0.00 0.00 87 1015.0
20240416060030 43 0 0.0 0.0 0.00 0.00 0.00 86 1015.1
20240416054529 44 0 0.0 0.0 0.00 0.00 0.00 86 1015.1
20240416053028 45 0 0.0 0.0 0.00 0.00 0.00 85 1015.1
20240416051529 45 0 0.0 0.0 0.00 0.00 0.00 85 1015.2
20240416050030 44 0 0.0 0.0 0.00 0.00 0.00 86 1015.2
20240416044530 44 0 0.0 0.0 0.00 0.00 0.00 86 1015.1
20240416043028 45 0 0.0 0.0 0.00 0.00 0.00 83 1015.0
20240416041528 45 0 0.0 0.0 0.00 0.00 0.00 82 1014.9
20240416040032 47 0 0.0 5.0 0.00 0.00 0.00 80 1014.7
20240416034530 46 0 0.0 1.0 0.00 0.00 0.00 81 1014.7
20240416033027 46 41 0.0 1.0 0.00 0.00 0.00 81 1014.7
20240416031546 47 0 0.0 1.0 0.00 0.00 0.00 81 1014.5
20240416030033 47 247 0.0 2.0 0.00 0.00 0.00 79 1014.4
20240416024531 49 225 1.0 4.0 0.00 0.00 0.00 77 1014.0
20240416023030 49 229 2.0 4.0 0.00 0.00 0.00 77 1014.0
20240416021529 49 191 1.0 3.0 0.00 0.00 0.00 77 1013.9
20240416020032 49 198 1.0 2.0 0.00 0.00 0.00 77 1014.0
20240416014534 49 198 1.0 3.0 0.00 0.00 0.00 76 1014.2
20240416013030 50 203 0.0 3.0 0.00 0.00 0.00 75 1014.3
20240416011526 50 217 2.0 4.0 0.00 0.00 0.00 75 1014.1
20240416010028 50 221 1.0 5.0 0.00 0.00 0.00 75 1013.8
20240416004535 51 214 2.0 5.0 0.00 0.01 0.00 73 1013.6
20240416003034 51 198 2.0 4.0 0.00 0.01 0.00 72 1013.3
20240416001527 52 200 2.0 8.0 0.00 0.01 0.00 72 1013.0
20240416000029 52 200 3.0 8.0 0.00 0.01 0.00 71 1012.8
20240415234527 53 221 4.0 11.0 0.00 0.02 0.00 70 1012.6
20240415233027 54 236 4.0 14.0 0.00 0.02 0.00 68 1012.3
20240415231527 55 243 5.0 9.0 0.00 0.02 0.00 65 1012.0
20240415230029 56 217 5.0 11.0 0.00 0.02 0.00 64 1011.6
20240415224523 56 194 4.0 13.0 0.00 0.05 0.00 63 1011.4
20240415223026 57 212 5.0 10.0 0.00 0.05 0.00 61 1011.1
20240415221528 58 191 5.0 11.0 0.00 0.05 0.00 58 1011.0
20240415220035 59 152 3.0 7.0 0.00 0.05 0.00 57 1010.7
20240415214531 59 204 6.0 10.0 0.00 0.06 0.00 59 1010.6
20240415213027 59 202 4.0 11.0 0.00 0.06 0.00 59 1010.3
20240415211532 59 226 7.0 20.0 0.00 0.06 0.00 59 1010.2
20240415210025 61 248 5.0 10.0 0.00 0.06 0.00 55 1009.7
20240415204528 63 222 5.0 9.0 0.00 0.06 0.00 51 1009.2
20240415203030 64 197 4.0 10.0 0.00 0.06 0.00 48 1008.8
20240415201535 65 195 4.0 17.0 0.00 0.06 0.00 41 1008.5
20240415200028 66 58 5.0 13.0 0.00 0.06 0.00 42 1008.3
20240415194527 66 158 7.0 17.0 0.00 0.06 0.00 39 1007.8
20240415193045 67 194 6.0 15.0 0.00 0.06 0.00 42 1007.6
20240415191527 67 200 4.0 16.0 0.00 0.06 0.00 41 1007.5
20240415190036 66 212 8.0 13.0 0.00 0.06 0.00 41 1007.3
20240415184533 67 126 7.0 11.0 0.00 0.06 0.00 42 1007.3
20240415183034 67 212 5.0 15.0 0.00 0.06 0.00 43 1007.3
20240415181537 67 188 6.0 12.0 0.00 0.06 0.00 42 1007.3
20240415180027 67 116 5.0 16.0 0.00 0.06 0.00 46 1007.3
20240415174529 66 208 5.0 10.0 0.00 0.06 0.00 45 1007.2
20240415173032 66 193 6.0 18.0 0.00 0.06 0.00 45 1007.8
20240415171536 66 190 4.0 14.0 0.00 0.06 0.00 48 1007.8
20240415170028 65 177 5.0 13.0 0.00 0.06 0.00 49 1007.7
20240415164528 65 197 6.0 15.0 0.00 0.06 0.00 50 1007.4
20240415163037 65 191 5.0 13.0 0.00 0.06 0.00 52 1007.5
20240415161529 65 189 5.0 14.0 0.00 0.06 0.00 53 1007.9
20240415160031 62 191 2.0 8.0 0.00 0.06 0.00 65 1008.0
20240415154541 61 235 3.0 7.0 0.00 0.06 0.00 65 1008.0
20240415153028 62 48 2.0 8.0 0.00 0.06 0.00 66 1008.3
20240415151530 61 74 4.0 9.0 0.00 0.06 0.00 66 1008.5
20240415150034 60 201 2.0 7.0 0.00 0.06 0.00 66 1008.5
20240415144530 59 219 3.0 6.0 0.00 0.06 0.00 68 1008.7
20240415143028 58 191 2.0 6.0 0.00 0.06 0.00 72 1008.6
20240415141543 57 201 2.0 6.0 0.00 0.06 0.00 75 1008.6
20240415140036 55 191 1.0 4.0 0.00 0.06 0.00 79 1008.5
20240415134534 53 189 2.0 4.0 0.00 0.06 0.00 83 1008.6
20240415133034 52 204 2.0 5.0 0.00 0.06 0.00 85 1008.6
20240415131530 51 185 2.0 4.0 0.00 0.06 0.00 87 1008.5
20240415130028 50 195 1.0 4.0 0.00 0.06 0.00 91 1008.5
20240415124528 49 195 0.0 3.0 0.00 0.06 0.00 94 1008.6
20240415123032 48 198 1.0 3.0 0.00 0.06 0.00 98 1008.2
20240415121529 47 198 0.0 3.0 0.00 0.06 0.00 99 1008.2
20240415120102 45 202 0.0 1.0 0.00 0.06 0.00 99 1008.0
20240415114530 44 0 0.0 1.0 0.00 0.06 0.00 99 1007.9
20240415113028 43 0 0.0 0.0 0.00 0.06 0.00 99 1007.8
20240415111529 42 0 0.0 0.0 0.00 0.06 0.00 99 1007.8
20240415110026 41 0 0.0 0.0 0.00 0.06 0.00 99 1007.6
20240415104533 41 0 0.0 0.0 0.00 0.06 0.00 99 1007.5
20240415103032 41 0 0.0 0.0 0.00 0.06 0.00 99 1007.0
20240415101529 41 0 0.0 0.0 0.00 0.06 0.00 99 1006.8
20240415100026 40 0 0.0 0.0 0.00 0.06 0.00 98 1006.9